Time;durP1;ratioP1;P1;durP2;ratioP2;P2;SDS_P1;SDS_P2;PMS_P1;PMS_P2;Temp;Humidity;BMP_temperature;BMP_pressure;BME280_temperature;BME280_humidity;BME280_pressure;Samples;Min_cycle;Max_cycle;Signal;HPM_P1;HPM_P2
2022/01/11 00:01:44;;;;;;;15.13;6.18;;;;;;;;;;5038662;28;20049;-67
2022/01/11 00:04:16;;;;;;;20.27;6.40;;;;;;;;;;5037406;28;20440;-67
2022/01/11 00:06:47;;;;;;;17.63;6.88;;;;;;;;;;5042781;28;20041;-67
2022/01/11 00:09:30;;;;;;;15.68;6.32;;;;;;;;;;5048747;28;20106;-69
2022/01/11 00:11:59;;;;;;;12.98;6.30;;;;;;;;;;5055477;28;20148;-67
2022/01/11 00:14:28;;;;;;;15.65;6.28;;;;;;;;;;5051655;28;20124;-67
2022/01/11 00:16:59;;;;;;;17.48;6.78;;;;;;;;;;5059024;28;20087;-68
2022/01/11 00:19:28;;;;;;;15.65;6.53;;;;;;;;;;5043866;28;20052;-67
2022/01/11 00:21:57;;;;;;;16.63;6.63;;;;;;;;;;5051602;28;20080;-68
2022/01/11 00:24:29;;;;;;;15.32;5.47;;;;;;;;;;5053043;28;20074;-67
2022/01/11 00:26:58;;;;;;;15.13;6.45;;;;;;;;;;5055072;28;20087;-67
2022/01/11 00:29:26;;;;;;;19.90;6.97;;;;;;;;;;5056045;28;20547;-67
2022/01/11 00:31:58;;;;;;;16.23;5.63;;;;;;;;;;5057532;28;20123;-67
2022/01/11 00:34:38;;;;;;;18.17;6.22;;;;;;;;;;5043470;28;20110;-67
2022/01/11 00:37:07;;;;;;;17.83;7.03;;;;;;;;;;5066976;28;20059;-68
2022/01/11 00:39:35;;;;;;;14.93;6.15;;;;;;;;;;5056966;28;20069;-68
2022/01/11 00:42:04;;;;;;;18.98;7.57;;;;;;;;;;5053768;28;20084;-68
2022/01/11 00:44:32;;;;;;;14.95;6.70;;;;;;;;;;5054025;28;20040;-68
2022/01/11 00:47:00;;;;;;;17.52;6.55;;;;;;;;;;5073797;28;20055;-68
2022/01/11 00:49:32;;;;;;;16.88;6.75;;;;;;;;;;5072906;28;20048;-68
2022/01/11 00:52:01;;;;;;;14.40;6.40;;;;;;;;;;5073316;28;20497;-68
2022/01/11 00:54:46;;;;;;;14.36;6.20;;;;;;;;;;2969046;28;10003312;-68
2022/01/11 00:57:14;;;;;;;13.88;6.78;;;;;;;;;;3305025;28;10001230;-68
2022/01/11 00:59:43;;;;;;;17.35;6.35;;;;;;;;;;5053560;28;20057;-67
2022/01/11 01:02:11;;;;;;;14.40;6.60;;;;;;;;;;5050380;28;20044;-68
2022/01/11 01:04:41;;;;;;;19.77;7.38;;;;;;;;;;5064772;28;20457;-68
2022/01/11 01:07:09;;;;;;;18.25;6.85;;;;;;;;;;5065586;28;20078;-68
2022/01/11 01:09:46;;;;;;;16.17;6.53;;;;;;;;;;5066207;28;20500;-67
2022/01/11 01:12:15;;;;;;;16.10;7.30;;;;;;;;;;5056951;28;20442;-67
2022/01/11 01:14:43;;;;;;;17.25;6.63;;;;;;;;;;5068991;28;20131;-68
2022/01/11 01:17:11;;;;;;;17.98;6.90;;;;;;;;;;5059056;28;20045;-67
2022/01/11 01:19:41;;;;;;;18.33;7.22;;;;;;;;;;5058034;28;20076;-68
2022/01/11 01:22:09;;;;;;;17.15;6.65;;;;;;;;;;5063819;28;20044;-67
2022/01/11 01:24:37;;;;;;;14.15;6.68;;;;;;;;;;5070808;28;20043;-67
2022/01/11 01:27:06;;;;;;;16.77;6.20;;;;;;;;;;5052686;28;20445;-67
2022/01/11 01:29:35;;;;;;;15.85;6.93;;;;;;;;;;5052376;28;20064;-67
2022/01/11 01:32:04;;;;;;;18.50;7.25;;;;;;;;;;5048668;28;20408;-68
2022/01/11 01:34:32;;;;;;;20.83;7.20;;;;;;;;;;5053876;28;20123;-68
2022/01/11 01:37:01;;;;;;;19.60;7.40;;;;;;;;;;5051773;28;20140;-68
2022/01/11 01:39:30;;;;;;;16.60;6.15;;;;;;;;;;5057239;28;20460;-68
2022/01/11 01:41:58;;;;;;;17.05;6.63;;;;;;;;;;5059129;28;20052;-68
2022/01/11 01:44:27;;;;;;;12.93;6.50;;;;;;;;;;5059255;28;20071;-67
2022/01/11 01:46:55;;;;;;;18.65;6.95;;;;;;;;;;5061883;28;20128;-69
2022/01/11 01:49:23;;;;;;;17.55;7.22;;;;;;;;;;5061286;28;20132;-67
2022/01/11 01:51:52;;;;;;;19.65;7.22;;;;;;;;;;5065728;28;20532;-68
2022/01/11 01:54:23;;;;;;;16.63;6.57;;;;;;;;;;5062622;28;20572;-68
2022/01/11 01:56:52;;;;;;;14.13;6.13;;;;;;;;;;5063563;28;20055;-68
2022/01/11 01:59:39;;;;;;;16.28;6.12;;;;;;;;;;1261927;28;10022910;-67
2022/01/11 02:02:08;;;;;;;17.77;5.72;;;;;;;;;;4702910;28;10001160;-67
2022/01/11 02:04:37;;;;;;;18.17;6.93;;;;;;;;;;5055764;28;20099;-67
2022/01/11 02:07:05;;;;;;;19.83;7.22;;;;;;;;;;5062771;28;20500;-68
2022/01/11 02:09:35;;;;;;;16.75;6.45;;;;;;;;;;5053897;28;20552;-67
2022/01/11 02:12:03;;;;;;;18.73;6.18;;;;;;;;;;5064222;28;20590;-67
2022/01/11 02:14:32;;;;;;;18.83;6.28;;;;;;;;;;5054084;28;20049;-68
2022/01/11 02:17:00;;;;;;;15.15;6.50;;;;;;;;;;5051068;28;20163;-67
2022/01/11 02:19:29;;;;;;;15.52;5.80;;;;;;;;;;5058696;28;20055;-68
2022/01/11 02:21:59;;;;;;;19.27;6.85;;;;;;;;;;5066118;28;20056;-67
2022/01/11 02:24:32;;;;;;;20.25;7.07;;;;;;;;;;5065827;28;20082;-68
2022/01/11 02:27:00;;;;;;;20.88;7.55;;;;;;;;;;5052278;28;20531;-69
2022/01/11 02:29:28;;;;;;;15.75;6.40;;;;;;;;;;5057747;28;20041;-67
2022/01/11 02:31:57;;;;;;;16.75;6.55;;;;;;;;;;5053620;28;20049;-67
2022/01/11 02:34:25;;;;;;;16.17;7.25;;;;;;;;;;5063525;28;20045;-67
2022/01/11 02:36:53;;;;;;;16.52;6.80;;;;;;;;;;5049955;28;20095;-68
2022/01/11 02:39:23;;;;;;;16.77;6.25;;;;;;;;;;5052588;28;20053;-68
2022/01/11 02:41:52;;;;;;;18.13;7.63;;;;;;;;;;5050927;28;20185;-69
2022/01/11 02:44:21;;;;;;;15.07;6.47;;;;;;;;;;5066631;28;20080;-68
2022/01/11 02:46:49;;;;;;;13.90;6.00;;;;;;;;;;5062719;28;20120;-68
2022/01/11 02:49:17;;;;;;;17.08;6.88;;;;;;;;;;5063170;28;20127;-68
2022/01/11 02:51:46;;;;;;;17.38;6.15;;;;;;;;;;5050971;28;20123;-68
2022/01/11 02:54:15;;;;;;;12.60;6.00;;;;;;;;;;5060251;28;20075;-68
2022/01/11 02:56:44;;;;;;;14.13;5.93;;;;;;;;;;5053900;28;20041;-68
2022/01/11 02:59:12;;;;;;;15.55;6.50;;;;;;;;;;5045517;28;20061;-70
2022/01/11 03:01:41;;;;;;;19.25;7.22;;;;;;;;;;5027833;28;20049;-68
2022/01/11 03:04:10;;;;;;;14.68;5.82;;;;;;;;;;5030341;28;20114;-68
2022/01/11 03:06:38;;;;;;;16.48;6.75;;;;;;;;;;5029652;28;20057;-69
2022/01/11 03:09:06;;;;;;;17.55;7.22;;;;;;;;;;5036327;28;20495;-68
2022/01/11 03:11:35;;;;;;;19.27;6.80;;;;;;;;;;5031663;28;20069;-68
2022/01/11 03:14:05;;;;;;;14.52;6.13;;;;;;;;;;5029613;28;20112;-68
2022/01/11 03:16:33;;;;;;;19.00;7.53;;;;;;;;;;5032567;28;20053;-68
2022/01/11 03:19:01;;;;;;;16.02;6.72;;;;;;;;;;5030749;28;20136;-68
2022/01/11 03:21:30;;;;;;;14.52;6.97;;;;;;;;;;5033025;28;20064;-68
2022/01/11 03:23:59;;;;;;;19.63;7.07;;;;;;;;;;5046566;28;20072;-68
2022/01/11 03:26:27;;;;;;;17.15;7.10;;;;;;;;;;5034818;28;20123;-68
2022/01/11 03:28:55;;;;;;;15.93;6.55;;;;;;;;;;5047935;28;20076;-68
2022/01/11 03:31:25;;;;;;;17.00;6.70;;;;;;;;;;5041752;28;20136;-68
2022/01/11 03:33:53;;;;;;;18.73;6.18;;;;;;;;;;5029907;28;20049;-68
2022/01/11 03:36:21;;;;;;;16.70;6.55;;;;;;;;;;5045870;28;20091;-69
2022/01/11 03:38:50;;;;;;;15.57;6.85;;;;;;;;;;5040824;28;20068;-68
2022/01/11 03:41:18;;;;;;;14.45;5.95;;;;;;;;;;5045863;28;20501;-68
2022/01/11 03:43:46;;;;;;;17.58;6.97;;;;;;;;;;5036195;28;20088;-68
2022/01/11 03:46:16;;;;;;;19.73;6.68;;;;;;;;;;5035225;28;20111;-68
2022/01/11 03:48:46;;;;;;;18.55;7.35;;;;;;;;;;5027948;28;20045;-68
2022/01/11 03:51:14;;;;;;;19.90;6.55;;;;;;;;;;5047139;28;20139;-68
2022/01/11 03:53:53;;;;;;;20.25;7.25;;;;;;;;;;5041761;28;20049;-68
2022/01/11 03:56:26;;;;;;;22.88;7.35;;;;;;;;;;5038946;28;20053;-68
2022/01/11 03:58:54;;;;;;;17.17;6.72;;;;;;;;;;5037922;28;20065;-68
2022/01/11 04:01:23;;;;;;;16.33;6.47;;;;;;;;;;5032737;28;20128;-69
2022/01/11 04:03:52;;;;;;;13.80;6.80;;;;;;;;;;5044837;28;20106;-68
2022/01/11 04:06:21;;;;;;;16.20;6.55;;;;;;;;;;5042384;28;20531;-70
2022/01/11 04:08:49;;;;;;;15.80;6.68;;;;;;;;;;5034694;28;20132;-68
2022/01/11 04:11:17;;;;;;;13.77;6.55;;;;;;;;;;5038300;28;20056;-68
2022/01/11 04:13:46;;;;;;;17.50;6.30;;;;;;;;;;5034260;28;20042;-69
2022/01/11 04:16:14;;;;;;;18.63;6.05;;;;;;;;;;5040926;28;20132;-68
2022/01/11 04:18:43;;;;;;;22.63;7.05;;;;;;;;;;5032890;28;20050;-68
2022/01/11 04:21:12;;;;;;;16.23;7.30;;;;;;;;;;5032027;28;20107;-68
2022/01/11 04:23:41;;;;;;;20.00;6.40;;;;;;;;;;5039021;28;20165;-69
2022/01/11 04:26:15;;;;;;;22.20;8.00;;;;;;;;;;5038491;28;20080;-68
2022/01/11 04:28:43;;;;;;;17.10;6.63;;;;;;;;;;5035777;28;20049;-68
2022/01/11 04:31:14;;;;;;;21.20;6.85;;;;;;;;;;5034200;28;20144;-68
2022/01/11 04:33:44;;;;;;;14.55;6.53;;;;;;;;;;5032226;28;20412;-69
2022/01/11 04:36:34;;;;;;;20.42;7.39;;;;;;;;;;4625105;28;10001193;-69
2022/01/11 04:39:03;;;;;;;19.17;6.82;;;;;;;;;;1726262;28;10001864;-68
2022/01/11 04:41:32;;;;;;;19.58;7.88;;;;;;;;;;5036506;28;20216;-68
2022/01/11 04:44:19;;;;;;;21.70;7.43;;;;;;;;;;4583540;28;10001186;-68
2022/01/11 04:46:47;;;;;;;20.63;7.68;;;;;;;;;;1388878;28;10002125;-68
2022/01/11 04:49:16;;;;;;;14.80;6.72;;;;;;;;;;5044339;28;20445;-68
2022/01/11 04:51:46;;;;;;;19.50;7.53;;;;;;;;;;5038520;28;20126;-68
2022/01/11 04:54:15;;;;;;;17.50;6.60;;;;;;;;;;5041587;28;20132;-68
2022/01/11 04:56:43;;;;;;;16.77;6.65;;;;;;;;;;5036915;28;20132;-69
2022/01/11 04:59:12;;;;;;;16.60;6.63;;;;;;;;;;5029669;28;20064;-68
2022/01/11 05:01:41;;;;;;;15.10;6.18;;;;;;;;;;5030027;28;20509;-69
2022/01/11 05:04:10;;;;;;;21.35;7.68;;;;;;;;;;5031293;28;20053;-68
2022/01/11 05:06:38;;;;;;;18.77;7.22;;;;;;;;;;5030068;28;20478;-68
2022/01/11 05:09:07;;;;;;;18.83;6.78;;;;;;;;;;5031824;28;20157;-68
2022/01/11 05:11:36;;;;;;;18.60;6.88;;;;;;;;;;5029817;28;20128;-68
2022/01/11 05:14:04;;;;;;;21.33;7.78;;;;;;;;;;5037200;28;20223;-68
2022/01/11 05:16:32;;;;;;;16.05;6.95;;;;;;;;;;5030377;28;20076;-68
2022/01/11 05:19:01;;;;;;;19.73;6.82;;;;;;;;;;5045426;28;20128;-68
2022/01/11 05:21:29;;;;;;;19.67;6.93;;;;;;;;;;5041064;28;20496;-68
2022/01/11 05:23:58;;;;;;;23.27;7.75;;;;;;;;;;5031339;28;20105;-68
2022/01/11 05:26:27;;;;;;;18.63;6.88;;;;;;;;;;5020979;28;20089;-68
2022/01/11 05:28:56;;;;;;;17.92;7.25;;;;;;;;;;5030263;28;20124;-68
2022/01/11 05:31:24;;;;;;;20.05;6.68;;;;;;;;;;5030029;28;20054;-69
2022/01/11 05:33:52;;;;;;;18.90;7.75;;;;;;;;;;5029918;28;20049;-68
2022/01/11 05:36:20;;;;;;;17.75;6.63;;;;;;;;;;5030796;28;20358;-68
2022/01/11 05:38:49;;;;;;;17.95;6.97;;;;;;;;;;5028858;28;20132;-68
2022/01/11 05:41:17;;;;;;;18.63;7.80;;;;;;;;;;5027895;28;20419;-68
2022/01/11 05:43:47;;;;;;;24.02;7.47;;;;;;;;;;5029568;28;20465;-68
2022/01/11 05:46:15;;;;;;;18.77;7.35;;;;;;;;;;5030159;28;20420;-68
2022/01/11 05:48:45;;;;;;;20.30;7.60;;;;;;;;;;5029671;28;20464;-68
2022/01/11 05:51:14;;;;;;;19.17;7.28;;;;;;;;;;5028811;28;20961;-68
2022/01/11 05:53:43;;;;;;;22.33;7.85;;;;;;;;;;5029251;28;20516;-68
2022/01/11 05:56:17;;;;;;;16.20;6.80;;;;;;;;;;5029544;28;20059;-68
2022/01/11 05:58:47;;;;;;;21.20;7.40;;;;;;;;;;5030838;28;20053;-68
2022/01/11 06:01:16;;;;;;;20.70;7.40;;;;;;;;;;5044028;28;20128;-70
2022/01/11 06:03:44;;;;;;;19.30;7.00;;;;;;;;;;5038840;28;20045;-68
2022/01/11 06:06:19;;;;;;;18.27;7.05;;;;;;;;;;5034043;28;20233;-67
2022/01/11 06:08:48;;;;;;;17.52;7.32;;;;;;;;;;5042512;28;20044;-68
2022/01/11 06:11:17;;;;;;;19.75;6.95;;;;;;;;;;5042316;28;20475;-68
2022/01/11 06:14:01;;;;;;;19.70;7.60;;;;;;;;;;1117224;28;10022919;-68
2022/01/11 06:16:29;;;;;;;20.00;7.45;;;;;;;;;;4698109;28;10001368;-68
2022/01/11 06:18:57;;;;;;;19.00;7.22;;;;;;;;;;5040487;28;20060;-68
2022/01/11 06:21:26;;;;;;;16.15;7.68;;;;;;;;;;5045287;28;20423;-68
2022/01/11 06:23:54;;;;;;;19.05;7.25;;;;;;;;;;5045989;28;20045;-69
2022/01/11 06:26:22;;;;;;;18.58;7.25;;;;;;;;;;5045555;28;20068;-68
2022/01/11 06:28:51;;;;;;;22.48;7.97;;;;;;;;;;5046669;28;20131;-68
2022/01/11 06:31:21;;;;;;;20.90;7.88;;;;;;;;;;5044899;28;20137;-68
2022/01/11 06:33:49;;;;;;;20.17;7.15;;;;;;;;;;5045856;28;20049;-68
2022/01/11 06:36:19;;;;;;;20.25;7.35;;;;;;;;;;5046512;28;20131;-68
2022/01/11 06:38:47;;;;;;;20.13;7.18;;;;;;;;;;5045829;28;20564;-68
2022/01/11 06:41:15;;;;;;;20.08;7.80;;;;;;;;;;5044786;28;20168;-68
2022/01/11 06:43:44;;;;;;;21.38;8.48;;;;;;;;;;5046581;28;20131;-68
2022/01/11 06:46:15;;;;;;;18.38;7.20;;;;;;;;;;5046791;28;20056;-68
2022/01/11 06:48:45;;;;;;;21.88;7.75;;;;;;;;;;5046108;28;20060;-68
2022/01/11 06:51:14;;;;;;;20.92;8.55;;;;;;;;;;5044052;28;20055;-68
2022/01/11 06:53:42;;;;;;;14.45;6.47;;;;;;;;;;5045765;28;20052;-68
2022/01/11 06:56:17;;;;;;;20.30;7.85;;;;;;;;;;5045640;28;20126;-68
2022/01/11 06:58:45;;;;;;;18.00;6.55;;;;;;;;;;5041116;28;20137;-70
2022/01/11 07:01:14;;;;;;;18.02;6.90;;;;;;;;;;5038549;28;20072;-68
2022/01/11 07:03:43;;;;;;;19.27;7.40;;;;;;;;;;5058070;28;20369;-69
2022/01/11 07:06:13;;;;;;;18.10;6.75;;;;;;;;;;5049262;28;20104;-68
2022/01/11 07:08:41;;;;;;;21.85;7.35;;;;;;;;;;5046353;28;20623;-68
2022/01/11 07:11:16;;;;;;;24.20;8.30;;;;;;;;;;5048163;28;20080;-68
2022/01/11 07:13:44;;;;;;;21.20;7.35;;;;;;;;;;5049788;28;20558;-68
2022/01/11 07:16:16;;;;;;;18.58;7.18;;;;;;;;;;5049894;28;20147;-68
2022/01/11 07:18:45;;;;;;;26.88;9.55;;;;;;;;;;5061858;28;20078;-68
2022/01/11 07:21:17;;;;;;;22.63;7.18;;;;;;;;;;5046875;28;20148;-68
2022/01/11 07:24:01;;;;;;;17.02;6.75;;;;;;;;;;4111753;28;10002045;-68
2022/01/11 07:26:29;;;;;;;21.30;8.18;;;;;;;;;;1741248;28;10002074;-68
2022/01/11 07:28:58;;;;;;;21.00;7.72;;;;;;;;;;5061842;28;20084;-68
2022/01/11 07:31:27;;;;;;;21.83;8.32;;;;;;;;;;5048244;28;20131;-68
2022/01/11 07:33:55;;;;;;;18.77;8.20;;;;;;;;;;5050870;28;20614;-69
2022/01/11 07:36:25;;;;;;;28.90;8.05;;;;;;;;;;5054237;28;20480;-69
2022/01/11 07:38:53;;;;;;;18.15;7.28;;;;;;;;;;5049178;28;20565;-69
2022/01/11 07:41:22;;;;;;;19.50;7.95;;;;;;;;;;5057429;28;20478;-68
2022/01/11 07:43:50;;;;;;;23.42;8.90;;;;;;;;;;5050859;28;20069;-68
2022/01/11 07:46:18;;;;;;;20.67;7.78;;;;;;;;;;5050111;28;20059;-68
2022/01/11 07:48:47;;;;;;;18.63;7.00;;;;;;;;;;5051530;28;20056;-68
2022/01/11 07:51:15;;;;;;;22.30;8.48;;;;;;;;;;5052520;28;20087;-69
2022/01/11 07:53:45;;;;;;;24.05;7.97;;;;;;;;;;5054484;28;20136;-68
2022/01/11 07:56:16;;;;;;;20.08;8.25;;;;;;;;;;5052138;28;20516;-69
2022/01/11 07:58:44;;;;;;;22.65;8.40;;;;;;;;;;5048475;28;20045;-69
2022/01/11 08:01:16;;;;;;;17.38;7.13;;;;;;;;;;5040646;28;20045;-68
2022/01/11 08:03:45;;;;;;;23.67;8.68;;;;;;;;;;5033240;28;20115;-68
2022/01/11 08:06:14;;;;;;;17.10;7.68;;;;;;;;;;5044705;28;20045;-68
2022/01/11 08:08:44;;;;;;;15.80;7.45;;;;;;;;;;5053231;28;20051;-68
2022/01/11 08:11:19;;;;;;;18.40;7.28;;;;;;;;;;5050599;28;20500;-68
2022/01/11 08:13:47;;;;;;;21.15;7.40;;;;;;;;;;5043397;28;20041;-69
2022/01/11 08:16:16;;;;;;;20.77;7.70;;;;;;;;;;5048461;28;20164;-68
2022/01/11 08:18:44;;;;;;;21.02;8.75;;;;;;;;;;5051683;28;20552;-68
2022/01/11 08:21:16;;;;;;;22.13;8.90;;;;;;;;;;5048493;28;20057;-68
2022/01/11 08:23:46;;;;;;;23.73;9.05;;;;;;;;;;5053855;28;20496;-68
2022/01/11 08:26:14;;;;;;;21.25;7.95;;;;;;;;;;5054278;28;20116;-69
2022/01/11 08:28:44;;;;;;;23.88;8.27;;;;;;;;;;5050724;28;20042;-70
2022/01/11 08:31:12;;;;;;;22.05;8.52;;;;;;;;;;5052761;28;20049;-68
2022/01/11 08:33:41;;;;;;;20.25;8.43;;;;;;;;;;5050294;28;20491;-68
2022/01/11 08:36:16;;;;;;;23.45;8.77;;;;;;;;;;5046510;28;20053;-68
2022/01/11 08:38:46;;;;;;;25.98;9.48;;;;;;;;;;5056202;28;20481;-68
2022/01/11 08:41:15;;;;;;;25.00;8.30;;;;;;;;;;5049279;28;20053;-68
2022/01/11 08:43:43;;;;;;;21.27;8.35;;;;;;;;;;5049131;28;20059;-68
2022/01/11 08:46:16;;;;;;;21.02;8.93;;;;;;;;;;5049902;28;20061;-68
2022/01/11 08:48:45;;;;;;;28.50;9.25;;;;;;;;;;5050905;28;20041;-68
2022/01/11 08:51:16;;;;;;;26.83;9.05;;;;;;;;;;5050438;28;20408;-68
2022/01/11 08:53:46;;;;;;;22.83;8.00;;;;;;;;;;5051650;28;20056;-68
2022/01/11 08:56:17;;;;;;;18.48;8.13;;;;;;;;;;5038119;28;20044;-68
2022/01/11 08:58:46;;;;;;;20.58;7.78;;;;;;;;;;5051055;28;20107;-68
2022/01/11 09:01:17;;;;;;;21.27;7.95;;;;;;;;;;5047217;28;20063;-68
2022/01/11 09:03:46;;;;;;;25.20;8.02;;;;;;;;;;5049477;28;20048;-68
2022/01/11 09:06:18;;;;;;;19.10;8.57;;;;;;;;;;5049337;28;20511;-69
2022/01/11 09:09:07;;;;;;;21.83;7.82;;;;;;;;;;5023602;28;20488;-68
2022/01/11 09:11:36;;;;;;;21.95;8.82;;;;;;;;;;5045570;28;20511;-68
2022/01/11 09:14:05;;;;;;;17.38;7.22;;;;;;;;;;5046079;28;20053;-68
2022/01/11 09:16:34;;;;;;;15.90;7.22;;;;;;;;;;5036630;28;20077;-68
2022/01/11 09:19:02;;;;;;;18.20;6.82;;;;;;;;;;5051698;28;20053;-68
2022/01/11 09:21:32;;;;;;;16.30;6.57;;;;;;;;;;5042615;28;20049;-68
2022/01/11 09:24:02;;;;;;;16.30;7.00;;;;;;;;;;3637308;28;10023997;-69
2022/01/11 09:26:32;;;;;;;18.75;7.25;;;;;;;;;;2086279;28;10002063;-68
2022/01/11 09:29:01;;;;;;;20.90;7.15;;;;;;;;;;5048775;28;20049;-68
2022/01/11 09:31:29;;;;;;;23.35;7.80;;;;;;;;;;5045570;28;20053;-68
2022/01/11 09:33:59;;;;;;;22.85;9.10;;;;;;;;;;5050226;28;20056;-68
2022/01/11 09:36:28;;;;;;;18.27;7.78;;;;;;;;;;5053401;28;20049;-70
2022/01/11 09:38:57;;;;;;;20.38;7.95;;;;;;;;;;5058795;28;20048;-68
2022/01/11 09:41:26;;;;;;;23.52;8.88;;;;;;;;;;5061641;28;20056;-68
2022/01/11 09:43:57;;;;;;;19.38;6.93;;;;;;;;;;5052615;28;20075;-68
2022/01/11 09:46:26;;;;;;;19.77;7.15;;;;;;;;;;5050427;28;20071;-68
2022/01/11 09:48:55;;;;;;;18.38;7.20;;;;;;;;;;5044054;28;20497;-69
2022/01/11 09:51:24;;;;;;;18.65;7.70;;;;;;;;;;5047081;28;20148;-69
2022/01/11 09:53:53;;;;;;;22.30;8.10;;;;;;;;;;5047808;28;20067;-69
2022/01/11 09:56:21;;;;;;;21.50;8.82;;;;;;;;;;5044726;28;20067;-69
2022/01/11 09:58:50;;;;;;;19.77;7.82;;;;;;;;;;5048564;28;20431;-69
2022/01/11 10:01:20;;;;;;;22.20;8.52;;;;;;;;;;5049174;28;20463;-69
2022/01/11 10:04:00;;;;;;;19.77;7.85;;;;;;;;;;5049052;28;20080;-69
2022/01/11 10:06:29;;;;;;;23.23;7.78;;;;;;;;;;5049479;28;20088;-70
2022/01/11 10:09:12;;;;;;;22.80;8.88;;;;;;;;;;5046860;28;20102;-68
2022/01/11 10:11:42;;;;;;;22.27;7.07;;;;;;;;;;5046302;28;20049;-70
2022/01/11 10:14:32;;;;;;;24.67;7.57;;;;;;;;;;5049851;28;20058;-68
2022/01/11 10:17:08;;;;;;;18.40;7.80;;;;;;;;;;5045331;28;20084;-68
2022/01/11 10:19:37;;;;;;;20.60;8.07;;;;;;;;;;5050116;28;20095;-68
2022/01/11 10:22:07;;;;;;;22.13;7.85;;;;;;;;;;5042815;28;20079;-68
2022/01/11 10:24:38;;;;;;;18.75;7.78;;;;;;;;;;5041683;28;20057;-69
2022/01/11 10:27:09;;;;;;;18.80;7.35;;;;;;;;;;5048924;28;20055;-68
2022/01/11 10:29:40;;;;;;;22.13;7.07;;;;;;;;;;5048189;28;20492;-68
2022/01/11 10:32:15;;;;;;;14.95;6.85;;;;;;;;;;5048785;28;20068;-68
2022/01/11 10:34:48;;;;;;;19.88;7.72;;;;;;;;;;5046730;28;20048;-68
2022/01/11 10:37:18;;;;;;;21.02;7.45;;;;;;;;;;5057091;28;20460;-68
2022/01/11 10:39:46;;;;;;;22.73;7.82;;;;;;;;;;5047836;28;20052;-68
2022/01/11 10:42:25;;;;;;;21.92;7.97;;;;;;;;;;5049760;28;20106;-68
2022/01/11 10:44:55;;;;;;;17.55;7.63;;;;;;;;;;5045521;28;20053;-69
2022/01/11 10:47:27;;;;;;;16.25;6.43;;;;;;;;;;5043732;28;20152;-68
2022/01/11 10:49:57;;;;;;;18.25;7.13;;;;;;;;;;5048875;28;20471;-69
2022/01/11 10:52:26;;;;;;;17.98;7.60;;;;;;;;;;5035742;28;20156;-68
2022/01/11 10:54:55;;;;;;;21.30;7.38;;;;;;;;;;5046552;28;20041;-68
2022/01/11 10:57:25;;;;;;;14.85;6.22;;;;;;;;;;5049427;28;20383;-68
2022/01/11 11:00:09;;;;;;;13.65;5.57;;;;;;;;;;5043163;28;20064;-68
2022/01/11 11:02:40;;;;;;;13.45;5.63;;;;;;;;;;5036369;28;20086;-68
2022/01/11 11:05:13;;;;;;;10.77;5.20;;;;;;;;;;5049801;28;20477;-67
2022/01/11 11:07:43;;;;;;;13.32;5.90;;;;;;;;;;5049066;28;20049;-67
2022/01/11 11:10:12;;;;;;;14.10;5.28;;;;;;;;;;5047121;28;20072;-68
2022/01/11 11:12:41;;;;;;;16.05;6.78;;;;;;;;;;5048240;28;20076;-69
2022/01/11 11:15:09;;;;;;;12.63;5.47;;;;;;;;;;5043000;28;20182;-68
2022/01/11 11:17:59;;;;;;;10.73;5.72;;;;;;;;;;5050264;28;20060;-70
2022/01/11 11:20:28;;;;;;;15.93;5.63;;;;;;;;;;5049923;28;20045;-68
2022/01/11 11:22:57;;;;;;;12.07;5.68;;;;;;;;;;5061027;28;20057;-68
2022/01/11 11:25:37;;;;;;;13.85;6.10;;;;;;;;;;657553;28;10002473;-69
2022/01/11 11:28:06;;;;;;;14.77;6.88;;;;;;;;;;5065351;28;20334;-68
2022/01/11 11:30:34;;;;;;;13.95;5.63;;;;;;;;;;5065495;28;20049;-69
2022/01/11 11:33:06;;;;;;;14.80;6.38;;;;;;;;;;5067498;28;20415;-68
2022/01/11 11:35:34;;;;;;;14.05;5.40;;;;;;;;;;5051414;28;20753;-68
2022/01/11 11:38:04;;;;;;;14.85;6.30;;;;;;;;;;5067778;28;20133;-68
2022/01/11 11:40:34;;;;;;;9.43;5.20;;;;;;;;;;5057116;28;20049;-68
2022/01/11 11:43:04;;;;;;;8.88;4.53;;;;;;;;;;5037807;28;20037;-68
2022/01/11 11:45:34;;;;;;;10.80;5.28;;;;;;;;;;5050376;28;20135;-68
2022/01/11 11:48:08;;;;;;;15.60;5.13;;;;;;;;;;5053252;28;20049;-68
2022/01/11 11:50:46;;;;;;;11.63;5.55;;;;;;;;;;5050492;28;20461;-68
2022/01/11 11:53:20;;;;;;;12.25;5.25;;;;;;;;;;5052674;28;20056;-68
2022/01/11 11:55:49;;;;;;;13.70;5.50;;;;;;;;;;5053942;28;20136;-68
2022/01/11 11:58:20;;;;;;;13.45;6.35;;;;;;;;;;5060578;28;20123;-68
2022/01/11 12:00:50;;;;;;;13.93;5.25;;;;;;;;;;5053693;28;20045;-68
2022/01/11 12:03:23;;;;;;;11.82;5.53;;;;;;;;;;5057559;28;20072;-68
2022/01/11 12:05:51;;;;;;;10.77;5.40;;;;;;;;;;5046775;28;20369;-69
2022/01/11 12:08:29;;;;;;;12.65;5.20;;;;;;;;;;5049356;28;20048;-68
2022/01/11 12:11:00;;;;;;;13.25;5.80;;;;;;;;;;5058102;28;20164;-68
2022/01/11 12:13:39;;;;;;;11.38;4.85;;;;;;;;;;5051904;28;20051;-69
2022/01/11 12:16:25;;;;;;;7.40;4.20;;;;;;;;;;5055217;28;20495;-69
2022/01/11 12:18:56;;;;;;;9.52;4.88;;;;;;;;;;5070754;28;20049;-68
2022/01/11 12:21:26;;;;;;;9.20;4.25;;;;;;;;;;5061616;28;20056;-68
2022/01/11 12:23:56;;;;;;;10.73;3.97;;;;;;;;;;5049350;28;20407;-68
2022/01/11 12:26:25;;;;;;;8.50;4.35;;;;;;;;;;5053028;28;20125;-68
2022/01/11 12:29:13;;;;;;;10.50;4.32;;;;;;;;;;5066888;28;20046;-69
2022/01/11 12:31:47;;;;;;;11.07;4.57;;;;;;;;;;5061765;28;20515;-68
2022/01/11 12:34:18;;;;;;;6.38;3.67;;;;;;;;;;5058026;28;20049;-67
2022/01/11 12:36:52;;;;;;;7.93;4.13;;;;;;;;;;5047611;28;20051;-68
2022/01/11 12:39:21;;;;;;;9.82;4.15;;;;;;;;;;5062466;28;20057;-68
2022/01/11 12:41:50;;;;;;;10.65;4.90;;;;;;;;;;5058625;28;20132;-68
2022/01/11 12:44:25;;;;;;;10.15;4.75;;;;;;;;;;5061025;28;20526;-68
2022/01/11 12:46:55;;;;;;;9.60;4.53;;;;;;;;;;5050377;28;20041;-68
2022/01/11 12:49:25;;;;;;;5.35;3.20;;;;;;;;;;5056397;28;20049;-68
2022/01/11 12:52:09;;;;;;;7.20;4.00;;;;;;;;;;5044931;28;20132;-68
2022/01/11 12:54:38;;;;;;;9.73;4.60;;;;;;;;;;5055522;28;20037;-68
2022/01/11 12:57:09;;;;;;;13.50;4.65;;;;;;;;;;5064859;28;20139;-68
2022/01/11 12:59:39;;;;;;;7.18;3.97;;;;;;;;;;5053167;28;20049;-68
2022/01/11 13:02:11;;;;;;;6.88;4.10;;;;;;;;;;5055213;28;20136;-68
2022/01/11 13:04:48;;;;;;;8.18;4.05;;;;;;;;;;5054096;28;20118;-68
2022/01/11 13:07:22;;;;;;;10.43;4.45;;;;;;;;;;5053107;28;20045;-68
2022/01/11 13:10:02;;;;;;;10.93;4.28;;;;;;;;;;5038027;28;20083;-70
2022/01/11 13:12:49;;;;;;;10.52;4.60;;;;;;;;;;5048503;28;20064;-68
2022/01/11 13:15:22;;;;;;;11.60;4.43;;;;;;;;;;5046262;28;20105;-68
2022/01/11 13:18:04;;;;;;;6.55;3.95;;;;;;;;;;5056280;28;20060;-68
2022/01/11 13:20:54;;;;;;;8.15;3.75;;;;;;;;;;5037104;28;20080;-69
2022/01/11 13:23:35;;;;;;;8.16;3.97;;;;;;;;;;4932825;28;10001102;-70
2022/01/11 13:26:04;;;;;;;9.27;4.57;;;;;;;;;;694800;28;10002000;-67
2022/01/11 13:28:56;;;;;;;9.80;4.28;;;;;;;;;;5048215;28;20055;-67
2022/01/11 13:31:26;;;;;;;8.88;4.10;;;;;;;;;;5047983;28;20049;-67
2022/01/11 13:34:00;;;;;;;8.27;3.92;;;;;;;;;;5053468;28;20053;-67
2022/01/11 13:36:31;;;;;;;9.85;4.55;;;;;;;;;;5040514;28;20675;-68
2022/01/11 13:39:04;;;;;;;6.53;4.00;;;;;;;;;;5049554;28;20060;-68
2022/01/11 13:41:34;;;;;;;8.13;4.00;;;;;;;;;;5059464;28;20045;-68
2022/01/11 13:44:07;;;;;;;10.23;4.10;;;;;;;;;;5034102;28;20508;-68
2022/01/11 13:46:39;;;;;;;8.73;3.92;;;;;;;;;;5046822;28;20048;-67
2022/01/11 13:49:08;;;;;;;9.10;3.92;;;;;;;;;;5067536;28;20048;-67
2022/01/11 13:51:38;;;;;;;10.90;5.15;;;;;;;;;;5060415;28;20052;-68
2022/01/11 13:54:07;;;;;;;9.82;4.00;;;;;;;;;;5048742;28;20420;-68
2022/01/11 13:56:37;;;;;;;10.25;4.57;;;;;;;;;;5054816;28;20045;-67
2022/01/11 13:59:06;;;;;;;9.35;4.43;;;;;;;;;;5042540;28;20053;-67
2022/01/11 14:01:34;;;;;;;14.10;4.45;;;;;;;;;;5046720;28;20489;-68
2022/01/11 14:04:08;;;;;;;9.05;4.63;;;;;;;;;;5042205;28;20305;-68
2022/01/11 14:06:42;;;;;;;10.13;4.85;;;;;;;;;;5044051;28;20055;-68
2022/01/11 14:09:16;;;;;;;9.88;5.18;;;;;;;;;;5050305;28;20044;-67
2022/01/11 14:14:29;;;;;;;9.00;4.57;;;;;;;;;;5049933;28;20481;-67
2022/01/11 14:17:12;;;;;;;9.55;4.45;;;;;;;;;;5050504;28;20061;-66
2022/01/11 14:19:46;;;;;;;12.60;4.57;;;;;;;;;;5049201;28;20209;-67
2022/01/11 14:22:16;;;;;;;7.88;4.00;;;;;;;;;;5049780;28;20049;-67
2022/01/11 14:24:52;;;;;;;11.05;4.68;;;;;;;;;;5052468;28;20045;-67
2022/01/11 14:27:21;;;;;;;7.88;4.18;;;;;;;;;;5040462;28;20163;-69
2022/01/11 14:29:58;;;;;;;6.65;3.88;;;;;;;;;;5051331;28;20044;-67
2022/01/11 14:32:27;;;;;;;9.70;3.90;;;;;;;;;;5042269;28;20077;-67
2022/01/11 14:34:56;;;;;;;8.88;4.28;;;;;;;;;;5039216;28;20039;-67
2022/01/11 14:37:29;;;;;;;10.90;4.50;;;;;;;;;;5049227;28;20056;-67
2022/01/11 14:39:58;;;;;;;9.88;4.53;;;;;;;;;;5036321;28;20049;-68
2022/01/11 14:42:28;;;;;;;13.27;4.00;;;;;;;;;;5046469;28;20456;-67
2022/01/11 14:45:06;;;;;;;9.35;4.45;;;;;;;;;;5040755;28;20049;-67
2022/01/11 14:47:45;;;;;;;10.50;4.70;;;;;;;;;;5051785;28;20479;-67
2022/01/11 14:50:15;;;;;;;9.85;4.57;;;;;;;;;;5056537;28;20089;-67
2022/01/11 14:52:56;;;;;;;8.55;4.50;;;;;;;;;;5051259;28;20048;-67